Time;durP1;ratioP1;P1;durP2;ratioP2;P2;SDS_P1;SDS_P2;PMS_P1;PMS_P2;Temp;Humidity;BMP_temperature;BMP_pressure;BME280_temperature;BME280_humidity;BME280_pressure;Samples;Min_cycle;Max_cycle;Signal;HPM_P1;HPM_P2
2023/09/29 00:00:33;;;;;;;8.13;3.60;;;17.30;99.90;;;;;;5077811;28;20480;-84
2023/09/29 00:02:59;;;;;;;7.53;3.22;;;17.30;99.90;;;;;;5076761;28;20485;-85
2023/09/29 00:05:25;;;;;;;5.65;3.03;;;17.20;99.90;;;;;;5093083;28;20039;-84
2023/09/29 00:07:53;;;;;;;5.28;3.03;;;17.20;99.90;;;;;;5076716;28;20021;-85
2023/09/29 00:10:20;;;;;;;5.95;3.15;;;17.10;99.90;;;;;;5076283;28;20028;-85
2023/09/29 00:12:48;;;;;;;4.88;2.97;;;17.10;99.90;;;;;;5076363;28;20538;-86
2023/09/29 00:15:15;;;;;;;6.20;3.00;;;17.10;99.90;;;;;;5076821;28;20028;-85
2023/09/29 00:17:41;;;;;;;6.55;2.90;;;17.10;99.90;;;;;;5093468;28;20456;-85
2023/09/29 00:20:13;;;;;;;5.90;3.40;;;17.10;99.90;;;;;;5092917;28;20447;-86
2023/09/29 00:22:39;;;;;;;6.05;3.17;;;17.10;99.90;;;;;;5076358;28;20392;-85
2023/09/29 00:25:06;;;;;;;4.78;2.92;;;17.10;99.90;;;;;;5075770;28;20025;-85
2023/09/29 00:27:31;;;;;;;4.80;3.08;;;17.10;99.90;;;;;;5077503;28;20036;-85
2023/09/29 00:29:57;;;;;;;6.70;3.50;;;17.00;99.90;;;;;;5076356;28;20024;-85
2023/09/29 00:32:22;;;;;;;6.75;3.60;;;17.10;99.90;;;;;;5075577;28;20029;-85
2023/09/29 00:34:48;;;;;;;5.85;3.60;;;17.10;99.90;;;;;;5077078;28;20029;-85
2023/09/29 00:37:15;;;;;;;6.82;3.38;;;17.10;99.90;;;;;;5075533;28;20044;-86
2023/09/29 00:39:40;;;;;;;6.70;3.28;;;17.10;99.90;;;;;;5076155;28;20038;-86
2023/09/29 00:42:06;;;;;;;6.82;3.10;;;17.20;99.90;;;;;;5092136;28;20056;-85
2023/09/29 00:44:33;;;;;;;6.32;3.78;;;17.10;99.90;;;;;;5075957;28;20028;-86
2023/09/29 00:47:00;;;;;;;5.72;3.72;;;17.10;99.90;;;;;;5076614;28;20477;-86
2023/09/29 00:49:29;;;;;;;6.28;2.80;;;17.10;99.90;;;;;;5075496;28;20028;-84
2023/09/29 00:51:59;;;;;;;6.78;3.15;;;17.00;99.90;;;;;;5092742;28;20020;-84
2023/09/29 00:54:30;;;;;;;5.13;3.00;;;17.00;99.90;;;;;;5075286;28;20462;-85
2023/09/29 00:56:59;;;;;;;4.82;3.22;;;17.00;99.90;;;;;;5076907;28;20036;-85
2023/09/29 00:59:26;;;;;;;5.55;3.03;;;16.90;99.90;;;;;;5075297;28;20031;-86
2023/09/29 01:01:52;;;;;;;5.57;3.00;;;16.90;99.90;;;;;;5075445;28;20051;-86
2023/09/29 01:04:18;;;;;;;6.25;3.03;;;16.80;99.90;;;;;;5076035;28;20032;-86
2023/09/29 01:06:47;;;;;;;4.82;2.65;;;16.90;99.90;;;;;;5076619;28;20052;-82
2023/09/29 01:09:12;;;;;;;4.35;2.80;;;16.90;99.90;;;;;;5075166;28;20158;-83
2023/09/29 01:11:43;;;;;;;4.72;3.00;;;17.00;99.90;;;;;;5075588;28;20053;-83
2023/09/29 01:14:11;;;;;;;4.72;2.65;;;17.00;99.90;;;;;;5074776;28;20032;-82
2023/09/29 01:16:40;;;;;;;5.13;3.15;;;17.10;99.90;;;;;;5076214;28;20071;-84
2023/09/29 01:19:14;;;;;;;5.22;2.72;;;17.10;99.90;;;;;;5074571;28;20027;-85
2023/09/29 01:21:40;;;;;;;4.72;3.05;;;17.10;99.90;;;;;;5076408;28;20265;-84
2023/09/29 01:24:08;;;;;;;5.97;3.08;;;17.00;99.90;;;;;;5091666;28;20110;-85
2023/09/29 01:26:34;;;;;;;5.90;3.25;;;17.00;99.90;;;;;;5074922;28;20042;-85
2023/09/29 01:28:59;;;;;;;6.43;3.20;;;17.10;99.90;;;;;;5075386;28;20055;-85
2023/09/29 01:31:25;;;;;;;6.22;2.90;;;17.10;99.90;;;;;;5091777;28;20537;-85
2023/09/29 01:33:51;;;;;;;7.28;3.30;;;17.10;99.90;;;;;;5093356;28;20059;-85
2023/09/29 01:36:16;;;;;;;5.68;3.53;;;17.00;99.90;;;;;;5078683;28;20028;-85
2023/09/29 01:38:42;;;;;;;5.35;3.20;;;17.00;99.90;;;;;;5078120;28;20388;-85
2023/09/29 01:41:08;;;;;;;7.07;2.90;;;17.00;99.90;;;;;;5077189;28;20047;-85
2023/09/29 01:43:35;;;;;;;7.40;3.20;;;17.00;99.90;;;;;;5075130;28;20386;-84
2023/09/29 01:46:01;;;;;;;5.85;3.10;;;16.90;99.90;;;;;;5091714;28;20059;-85
2023/09/29 01:48:26;;;;;;;6.63;2.72;;;16.80;99.90;;;;;;5074477;28;20064;-84
2023/09/29 01:50:52;;;;;;;6.53;2.88;;;16.80;99.90;;;;;;5074654;28;20484;-83
2023/09/29 01:53:18;;;;;;;5.28;3.13;;;16.80;99.90;;;;;;5075025;28;20070;-84
2023/09/29 01:55:43;;;;;;;4.13;2.42;;;16.90;99.90;;;;;;5091106;28;20469;-84
2023/09/29 01:58:09;;;;;;;5.78;2.95;;;16.90;99.90;;;;;;5073776;28;20401;-85
2023/09/29 02:00:35;;;;;;;5.05;2.75;;;17.00;99.90;;;;;;5074475;28;20031;-84
2023/09/29 02:03:05;;;;;;;5.28;2.67;;;17.00;99.90;;;;;;5074014;28;20025;-84
2023/09/29 02:05:30;;;;;;;4.43;2.72;;;17.00;99.90;;;;;;5090908;28;20032;-85
2023/09/29 02:07:58;;;;;;;6.15;3.42;;;17.00;99.90;;;;;;5074840;28;20412;-84
2023/09/29 02:10:24;;;;;;;4.75;3.10;;;17.00;99.90;;;;;;5074840;28;20024;-84
2023/09/29 02:12:58;;;;;;;5.97;3.10;;;17.00;99.90;;;;;;5075194;28;20025;-85
2023/09/29 02:15:25;;;;;;;5.60;3.10;;;16.90;99.90;;;;;;5074642;28;20029;-86
2023/09/29 02:17:50;;;;;;;8.60;3.47;;;16.90;99.90;;;;;;5074219;28;20037;-86
2023/09/29 02:20:18;;;;;;;6.35;2.70;;;16.90;99.90;;;;;;5074426;28;20090;-85
2023/09/29 02:22:44;;;;;;;5.35;2.63;;;16.90;99.90;;;;;;5075080;28;20020;-86
2023/09/29 02:25:11;;;;;;;3.60;2.53;;;16.90;99.90;;;;;;5073372;28;20036;-84
2023/09/29 02:27:37;;;;;;;7.30;3.17;;;16.90;99.90;;;;;;5073848;28;20040;-85
2023/09/29 02:30:03;;;;;;;4.00;2.45;;;16.90;99.90;;;;;;5073982;28;20028;-85
2023/09/29 02:32:29;;;;;;;5.65;3.03;;;16.90;99.90;;;;;;5073463;28;20216;-85
2023/09/29 02:34:55;;;;;;;5.78;2.92;;;17.00;99.90;;;;;;5074948;28;20035;-85
2023/09/29 02:37:21;;;;;;;4.10;3.00;;;17.10;99.90;;;;;;5073395;28;20076;-85
2023/09/29 02:39:47;;;;;;;4.93;2.70;;;17.10;99.90;;;;;;5073705;28;20031;-86
2023/09/29 02:42:12;;;;;;;5.65;3.05;;;17.10;99.90;;;;;;5073160;28;20097;-85
2023/09/29 02:44:39;;;;;;;5.35;3.20;;;17.10;99.90;;;;;;5073434;28;20044;-83
2023/09/29 02:47:05;;;;;;;5.15;2.58;;;17.10;99.90;;;;;;5074541;28;20127;-83
2023/09/29 02:49:33;;;;;;;5.88;2.92;;;17.20;99.90;;;;;;5089931;28;20515;-83
2023/09/29 02:51:59;;;;;;;5.72;2.97;;;17.20;99.90;;;;;;5090477;28;20020;-83
2023/09/29 02:54:25;;;;;;;4.63;2.42;;;17.20;99.90;;;;;;5072874;28;20082;-84
2023/09/29 02:56:51;;;;;;;3.95;2.50;;;17.30;99.90;;;;;;5073593;28;20055;-85
2023/09/29 02:59:16;;;;;;;4.20;2.78;;;17.20;99.90;;;;;;5073977;28;20094;-85
2023/09/29 03:01:44;;;;;;;6.03;2.90;;;17.30;99.90;;;;;;5073384;28;20453;-86
2023/09/29 03:04:10;;;;;;;5.22;2.65;;;17.30;99.90;;;;;;5073173;28;20021;-84
2023/09/29 03:06:35;;;;;;;5.35;3.25;;;17.30;99.90;;;;;;5072878;28;20031;-85
2023/09/29 03:09:01;;;;;;;4.95;3.00;;;17.30;99.90;;;;;;5074444;28;20045;-85
2023/09/29 03:11:26;;;;;;;6.40;3.03;;;17.30;99.90;;;;;;5072954;28;20531;-84
2023/09/29 03:13:55;;;;;;;4.72;2.90;;;17.30;99.90;;;;;;5073150;28;20112;-85
2023/09/29 03:16:24;;;;;;;4.30;2.65;;;17.30;99.90;;;;;;5054732;28;20036;-84
2023/09/29 03:18:50;;;;;;;4.15;2.40;;;17.30;99.90;;;;;;5053905;28;20025;-84
2023/09/29 03:21:16;;;;;;;5.00;2.92;;;17.20;99.90;;;;;;5052559;28;20067;-85
2023/09/29 03:23:42;;;;;;;4.63;2.70;;;17.30;99.90;;;;;;5053997;28;20025;-84
2023/09/29 03:26:09;;;;;;;5.13;2.70;;;17.20;99.90;;;;;;5053646;28;20504;-85
2023/09/29 03:28:35;;;;;;;4.93;2.60;;;17.30;99.90;;;;;;5069143;28;20382;-84
2023/09/29 03:31:05;;;;;;;6.85;2.55;;;17.30;99.90;;;;;;5053212;28;20021;-85
2023/09/29 03:33:32;;;;;;;5.07;2.90;;;17.30;99.90;;;;;;5068013;28;20099;-85
2023/09/29 03:35:58;;;;;;;6.72;2.55;;;17.30;99.90;;;;;;5108288;28;20071;-85
2023/09/29 03:38:25;;;;;;;5.55;2.67;;;17.30;99.90;;;;;;5092260;28;20032;-85
2023/09/29 03:40:52;;;;;;;5.38;2.88;;;17.30;99.90;;;;;;5093084;28;20024;-85
2023/09/29 03:43:18;;;;;;;4.72;2.67;;;17.40;99.90;;;;;;5092816;28;20031;-85
2023/09/29 03:45:44;;;;;;;7.25;2.90;;;17.40;99.90;;;;;;5094175;28;20384;-85
2023/09/29 03:48:10;;;;;;;7.63;2.65;;;17.40;99.90;;;;;;5094010;28;20084;-85
2023/09/29 03:50:35;;;;;;;5.53;2.45;;;17.50;99.90;;;;;;5093793;28;20020;-86
2023/09/29 03:53:01;;;;;;;4.95;2.83;;;17.50;99.90;;;;;;5094155;28;20046;-85
2023/09/29 03:55:27;;;;;;;6.35;2.70;;;17.50;99.90;;;;;;5092430;28;20028;-85
2023/09/29 03:57:53;;;;;;;5.60;3.20;;;17.50;99.90;;;;;;5092874;28;20105;-85
2023/09/29 04:00:19;;;;;;;5.45;3.03;;;17.50;99.90;;;;;;5092547;28;20024;-85
2023/09/29 04:02:49;;;;;;;7.82;3.00;;;17.50;99.90;;;;;;5092839;28;20024;-86
2023/09/29 04:05:15;;;;;;;6.10;2.72;;;17.50;99.90;;;;;;5092193;28;20389;-86
2023/09/29 04:07:42;;;;;;;4.93;3.10;;;17.50;99.90;;;;;;5093026;28;20119;-85
2023/09/29 04:10:08;;;;;;;5.95;3.15;;;17.50;99.90;;;;;;5093823;28;20016;-85
2023/09/29 04:12:35;;;;;;;4.43;2.63;;;17.50;99.90;;;;;;5092688;28;20490;-84
2023/09/29 04:15:00;;;;;;;5.97;3.13;;;17.50;99.90;;;;;;5092782;28;20024;-84
2023/09/29 04:17:26;;;;;;;4.32;2.50;;;17.50;99.90;;;;;;5092310;28;20039;-85
2023/09/29 04:19:53;;;;;;;5.03;2.75;;;17.50;99.90;;;;;;5093944;28;20028;-84
2023/09/29 04:22:19;;;;;;;4.38;2.53;;;17.50;99.90;;;;;;5094665;28;20164;-85
2023/09/29 04:24:45;;;;;;;5.22;2.80;;;17.40;99.90;;;;;;5098730;28;20040;-85
2023/09/29 04:27:10;;;;;;;5.15;3.00;;;17.40;99.90;;;;;;5097654;28;20384;-86
2023/09/29 04:29:36;;;;;;;5.25;2.70;;;17.50;99.90;;;;;;5097468;28;20131;-85
2023/09/29 04:32:01;;;;;;;3.88;2.45;;;17.50;99.90;;;;;;5096525;28;20030;-85
2023/09/29 04:34:27;;;;;;;4.80;2.65;;;17.50;99.90;;;;;;5095831;28;20071;-86
2023/09/29 04:36:53;;;;;;;7.60;3.03;;;17.50;99.90;;;;;;5097386;28;20039;-87
2023/09/29 04:39:19;;;;;;;4.32;2.67;;;17.40;99.90;;;;;;5095804;28;20020;-85
2023/09/29 04:41:44;;;;;;;4.57;2.75;;;17.40;99.90;;;;;;5098526;28;20035;-88
2023/09/29 04:44:10;;;;;;;4.22;2.95;;;17.40;99.90;;;;;;5097953;28;20115;-87
2023/09/29 04:46:36;;;;;;;4.50;3.00;;;17.40;99.90;;;;;;5098164;28;20126;-85
2023/09/29 04:49:03;;;;;;;3.78;2.75;;;17.40;99.90;;;;;;5097240;28;20055;-85
2023/09/29 04:51:33;;;;;;;6.20;2.88;;;17.40;99.90;;;;;;5096610;28;20028;-85
2023/09/29 04:54:00;;;;;;;6.70;3.13;;;17.50;99.90;;;;;;5096682;28;20134;-85
2023/09/29 04:56:26;;;;;;;4.07;2.85;;;17.50;99.90;;;;;;5088284;28;20036;-83
2023/09/29 04:58:51;;;;;;;5.35;2.97;;;17.50;99.90;;;;;;5085231;28;20532;-85
2023/09/29 05:01:18;;;;;;;5.70;2.80;;;17.50;99.90;;;;;;5076942;28;20436;-85
2023/09/29 05:03:45;;;;;;;5.13;3.05;;;17.50;99.90;;;;;;5092663;28;20020;-85
2023/09/29 05:06:10;;;;;;;5.88;2.80;;;17.50;99.90;;;;;;5077303;28;20032;-85
2023/09/29 05:08:36;;;;;;;5.10;3.20;;;17.60;99.90;;;;;;5075387;28;20115;-85
2023/09/29 05:11:02;;;;;;;5.78;3.00;;;17.60;99.90;;;;;;5076660;28;20454;-85
2023/09/29 05:13:32;;;;;;;3.90;2.60;;;17.50;99.90;;;;;;5075967;28;20028;-85
2023/09/29 05:15:58;;;;;;;5.15;3.08;;;17.50;99.90;;;;;;5075610;28;20029;-86
2023/09/29 05:18:24;;;;;;;8.70;3.13;;;17.50;99.90;;;;;;5075476;28;20024;-85
2023/09/29 05:20:50;;;;;;;5.30;2.80;;;17.50;99.90;;;;;;5091901;28;20027;-83
2023/09/29 05:23:15;;;;;;;7.90;3.17;;;17.50;99.90;;;;;;5074791;28;20063;-84
2023/09/29 05:25:48;;;;;;;5.72;2.85;;;17.60;99.90;;;;;;5091314;28;20033;-83
2023/09/29 05:28:14;;;;;;;5.38;2.92;;;17.60;99.90;;;;;;5075164;28;20507;-83
2023/09/29 05:30:53;;;;;;;5.15;3.08;;;17.60;99.90;;;;;;5074845;28;20319;-84
2023/09/29 05:33:18;;;;;;;6.45;2.92;;;17.60;99.90;;;;;;5075352;28;20045;-84
2023/09/29 05:35:46;;;;;;;4.18;2.55;;;17.60;99.90;;;;;;5076012;28;20036;-84
2023/09/29 05:38:11;;;;;;;6.47;2.90;;;17.60;99.90;;;;;;5076062;28;20031;-83
2023/09/29 05:40:38;;;;;;;6.55;2.90;;;17.50;99.90;;;;;;5091451;28;20054;-83
2023/09/29 05:43:04;;;;;;;4.30;2.58;;;17.50;99.90;;;;;;5091642;28;20024;-83
2023/09/29 05:45:30;;;;;;;5.40;3.05;;;17.50;99.90;;;;;;5074082;28;20056;-85
2023/09/29 05:47:56;;;;;;;6.20;3.10;;;17.50;99.90;;;;;;5075939;28;20087;-85
2023/09/29 05:50:22;;;;;;;6.10;2.78;;;17.50;99.90;;;;;;5091595;28;20029;-86
2023/09/29 05:52:48;;;;;;;4.07;2.58;;;17.50;99.90;;;;;;5075196;28;20027;-84
2023/09/29 05:55:13;;;;;;;4.25;2.65;;;17.50;99.90;;;;;;5076094;28;20033;-84
2023/09/29 05:57:39;;;;;;;5.03;2.80;;;17.50;99.90;;;;;;5075581;28;20082;-82
2023/09/29 06:00:06;;;;;;;5.10;2.53;;;17.50;99.90;;;;;;5076323;28;20024;-83
2023/09/29 06:02:31;;;;;;;6.35;2.97;;;17.50;99.90;;;;;;5076298;28;20496;-85
2023/09/29 06:04:57;;;;;;;8.77;3.15;;;17.50;99.90;;;;;;5091885;28;20025;-85
2023/09/29 06:07:23;;;;;;;5.30;2.60;;;17.60;99.90;;;;;;5074044;28;20025;-87
2023/09/29 06:09:48;;;;;;;7.22;2.78;;;17.60;99.90;;;;;;5074786;28;20021;-83
2023/09/29 06:12:14;;;;;;;4.38;2.75;;;17.70;99.90;;;;;;5075570;28;20033;-83
2023/09/29 06:14:39;;;;;;;5.25;2.65;;;17.70;99.90;;;;;;5074672;28;20409;-83
2023/09/29 06:17:05;;;;;;;5.85;2.88;;;17.70;99.90;;;;;;5074867;28;20036;-83
2023/09/29 06:19:31;;;;;;;8.20;3.17;;;17.80;99.90;;;;;;5074527;28;20028;-83
2023/09/29 06:21:56;;;;;;;4.75;2.58;;;17.70;99.90;;;;;;5074127;28;20025;-83
2023/09/29 06:24:22;;;;;;;5.35;3.00;;;17.70;99.90;;;;;;5074865;28;20024;-84
2023/09/29 06:26:47;;;;;;;4.97;2.58;;;17.70;99.90;;;;;;5074013;28;20031;-82
2023/09/29 06:29:13;;;;;;;4.70;2.63;;;17.70;99.90;;;;;;5074784;28;20074;-82
2023/09/29 06:31:38;;;;;;;4.65;2.85;;;17.70;99.90;;;;;;5076439;28;20028;-83
2023/09/29 06:34:04;;;;;;;7.10;2.85;;;17.70;99.90;;;;;;5074150;28;20040;-82
2023/09/29 06:36:30;;;;;;;4.28;2.88;;;17.70;99.90;;;;;;5072747;28;20048;-82
2023/09/29 06:38:56;;;;;;;6.88;2.83;;;17.70;99.90;;;;;;5073073;28;20028;-83
2023/09/29 06:41:23;;;;;;;4.50;2.35;;;17.70;99.90;;;;;;5073176;28;20115;-81
2023/09/29 06:43:49;;;;;;;6.18;2.55;;;17.70;99.90;;;;;;5072584;28;20073;-81
2023/09/29 06:46:15;;;;;;;6.60;2.67;;;17.80;99.90;;;;;;5073058;28;20047;-83
2023/09/29 06:48:42;;;;;;;5.22;2.90;;;17.80;99.90;;;;;;5074107;28;20461;-85
2023/09/29 06:51:07;;;;;;;5.15;3.05;;;17.80;99.90;;;;;;5072442;28;20028;-86
2023/09/29 06:53:33;;;;;;;7.85;3.15;;;17.80;99.90;;;;;;5072729;28;20147;-86
2023/09/29 06:55:59;;;;;;;3.95;2.63;;;17.90;99.90;;;;;;5072695;28;20036;-84
2023/09/29 06:58:24;;;;;;;6.57;2.70;;;17.90;99.90;;;;;;5072947;28;20086;-83
2023/09/29 07:00:51;;;;;;;6.68;2.58;;;18.00;99.90;;;;;;5072662;28;20024;-79
2023/09/29 07:03:18;;;;;;;5.28;2.88;;;18.00;99.90;;;;;;5072835;28;20032;-82
2023/09/29 07:05:46;;;;;;;6.15;2.58;;;18.10;99.90;;;;;;5072867;28;20024;-85
2023/09/29 07:08:12;;;;;;;4.00;2.50;;;18.10;99.90;;;;;;5090038;28;20028;-82
2023/09/29 07:10:38;;;;;;;6.38;2.63;;;18.10;99.90;;;;;;5075132;28;20028;-82
2023/09/29 07:13:04;;;;;;;6.88;3.00;;;18.10;99.90;;;;;;5072647;28;20036;-83
2023/09/29 07:15:29;;;;;;;5.88;2.70;;;18.10;99.90;;;;;;5072781;28;20020;-86
2023/09/29 07:17:55;;;;;;;6.15;2.90;;;18.10;99.90;;;;;;5072460;28;20124;-83
2023/09/29 07:20:21;;;;;;;6.45;2.65;;;18.20;99.90;;;;;;5057132;28;20033;-83
2023/09/29 07:22:46;;;;;;;4.25;2.20;;;18.10;99.90;;;;;;5087583;28;20024;-83
2023/09/29 07:25:14;;;;;;;5.93;3.08;;;18.20;99.90;;;;;;5073689;28;20037;-84
2023/09/29 07:27:39;;;;;;;6.05;2.60;;;18.20;99.90;;;;;;5073027;28;20032;-84
2023/09/29 07:30:07;;;;;;;6.90;2.67;;;18.20;99.90;;;;;;5059375;28;20021;-84
2023/09/29 07:32:32;;;;;;;5.88;2.60;;;18.20;99.90;;;;;;5068675;28;20040;-84
2023/09/29 07:34:58;;;;;;;6.05;2.40;;;18.30;99.90;;;;;;5072771;28;20472;-84
2023/09/29 07:37:24;;;;;;;7.10;2.90;;;18.30;99.90;;;;;;5072026;28;20461;-80
2023/09/29 07:39:49;;;;;;;6.35;2.70;;;18.30;99.90;;;;;;5073537;28;20052;-80
2023/09/29 07:42:17;;;;;;;6.30;2.83;;;18.30;99.90;;;;;;5074750;28;20050;-81
2023/09/29 07:44:43;;;;;;;5.38;2.75;;;18.30;99.90;;;;;;5072696;28;20024;-82
2023/09/29 07:47:08;;;;;;;5.60;2.60;;;18.40;99.90;;;;;;5089880;28;20078;-82
2023/09/29 07:49:40;;;;;;;6.50;3.08;;;18.40;99.90;;;;;;5079245;28;20036;-75
2023/09/29 07:52:06;;;;;;;8.73;2.97;;;18.50;99.90;;;;;;5071903;28;20025;-79
2023/09/29 07:54:31;;;;;;;5.63;2.70;;;18.50;99.90;;;;;;5071563;28;20033;-78
2023/09/29 07:56:57;;;;;;;6.28;2.72;;;18.60;99.90;;;;;;5073647;28;20094;-78
2023/09/29 07:59:23;;;;;;;4.65;2.50;;;18.60;99.90;;;;;;5077323;28;20108;-78
2023/09/29 08:01:49;;;;;;;5.30;2.40;;;18.70;99.90;;;;;;5075389;28;20484;-79
2023/09/29 08:04:16;;;;;;;6.00;2.58;;;18.80;99.90;;;;;;5077203;28;20021;-79
2023/09/29 08:06:42;;;;;;;4.07;2.70;;;18.80;99.90;;;;;;5075743;28;20078;-79
2023/09/29 08:09:08;;;;;;;7.75;2.60;;;18.90;99.90;;;;;;5076022;28;20115;-78
2023/09/29 08:11:34;;;;;;;4.18;2.70;;;19.00;99.90;;;;;;5076523;28;20506;-78
2023/09/29 08:14:00;;;;;;;5.65;2.55;;;19.10;99.90;;;;;;5075888;28;20024;-78
2023/09/29 08:16:26;;;;;;;4.70;2.40;;;19.10;99.90;;;;;;5076796;28;20370;-77
2023/09/29 08:18:51;;;;;;;7.30;2.70;;;19.10;99.90;;;;;;5077118;28;20024;-78
2023/09/29 08:21:17;;;;;;;5.47;2.45;;;19.20;99.90;;;;;;5076209;28;20031;-77
2023/09/29 08:23:42;;;;;;;6.18;2.22;;;19.20;99.90;;;;;;5075450;28;20078;-78
2023/09/29 08:26:09;;;;;;;8.00;2.63;;;19.20;99.90;;;;;;5075584;28;20035;-78
2023/09/29 08:28:35;;;;;;;6.07;2.60;;;19.20;99.90;;;;;;5076160;28;20056;-79
2023/09/29 08:31:01;;;;;;;5.57;2.78;;;19.30;99.90;;;;;;5075660;28;20060;-78
2023/09/29 08:33:29;;;;;;;4.82;2.90;;;19.30;99.90;;;;;;5076484;28;20094;-78
2023/09/29 08:35:56;;;;;;;7.22;2.45;;;19.40;99.90;;;;;;5075738;28;20035;-78
2023/09/29 08:38:22;;;;;;;6.30;2.45;;;19.40;99.90;;;;;;5075427;28;20048;-78
2023/09/29 08:40:54;;;;;;;6.25;2.85;;;19.40;99.90;;;;;;5074943;28;20028;-81
2023/09/29 08:43:21;;;;;;;6.50;2.60;;;19.50;99.90;;;;;;5073086;28;20029;-82
2023/09/29 08:45:48;;;;;;;5.25;2.58;;;19.50;99.90;;;;;;5068018;28;20036;-81
2023/09/29 08:48:14;;;;;;;6.50;2.80;;;19.60;99.90;;;;;;5101091;28;20025;-81
2023/09/29 08:50:43;;;;;;;7.63;3.53;;;19.60;99.90;;;;;;5070260;28;20033;-81
2023/09/29 08:53:10;;;;;;;5.60;2.45;;;19.70;99.90;;;;;;5075609;28;20162;-82
2023/09/29 08:55:38;;;;;;;6.18;2.47;;;19.70;99.90;;;;;;5075035;28;20096;-82
2023/09/29 08:58:04;;;;;;;5.10;2.60;;;19.80;99.90;;;;;;5074923;28;20477;-83
2023/09/29 09:00:31;;;;;;;7.57;2.42;;;19.80;99.90;;;;;;5075000;28;20036;-85
2023/09/29 09:03:00;;;;;;;3.83;2.40;;;19.90;99.90;;;;;;5075037;28;20028;-83
2023/09/29 09:05:26;;;;;;;6.03;2.40;;;20.00;99.90;;;;;;5076396;28;20115;-83
2023/09/29 09:07:53;;;;;;;6.90;2.90;;;20.10;99.90;;;;;;5073656;28;20060;-83
2023/09/29 09:10:34;;;;;;;7.03;2.95;;;20.10;99.90;;;;;;5074833;28;20024;-81
2023/09/29 09:13:00;;;;;;;6.25;2.65;;;20.20;99.90;;;;;;5075120;28;20462;-83
2023/09/29 09:15:26;;;;;;;7.03;2.55;;;20.30;99.90;;;;;;5074586;28;20028;-79
2023/09/29 09:17:52;;;;;;;3.90;2.50;;;20.40;99.90;;;;;;5073806;28;20039;-80
2023/09/29 09:20:18;;;;;;;6.25;2.60;;;20.50;99.90;;;;;;5091076;28;20086;-80
2023/09/29 09:22:56;;;;;;;5.47;2.42;;;20.50;99.90;;;;;;5090904;28;20051;-80
2023/09/29 09:25:35;;;;;;;4.00;2.50;;;20.60;99.90;;;;;;5074061;28;20083;-80
2023/09/29 09:28:01;;;;;;;5.78;2.33;;;20.70;99.90;;;;;;5074160;28;20044;-81
2023/09/29 09:30:27;;;;;;;6.22;2.60;;;20.90;99.90;;;;;;5074147;28;20457;-80
2023/09/29 09:32:53;;;;;;;2.75;2.10;;;21.00;99.90;;;;;;5073511;28;20052;-81
2023/09/29 09:35:29;;;;;;;6.30;2.53;;;21.10;99.90;;;;;;5074033;28;20043;-80
2023/09/29 09:37:56;;;;;;;5.50;2.47;;;21.20;99.90;;;;;;5073559;28;20028;-79
2023/09/29 09:40:26;;;;;;;4.10;2.22;;;21.30;99.90;;;;;;5074096;28;20017;-80
2023/09/29 09:42:53;;;;;;;7.80;2.40;;;21.30;99.90;;;;;;5073380;28;20120;-79
2023/09/29 09:45:25;;;;;;;4.80;2.30;;;21.40;99.90;;;;;;5054873;28;20029;-79
2023/09/29 09:47:59;;;;;;;6.93;2.30;;;21.50;99.90;;;;;;5070250;28;20565;-80
2023/09/29 09:50:29;;;;;;;7.53;2.67;;;21.50;99.90;;;;;;5074976;28;20031;-80
2023/09/29 09:52:54;;;;;;;4.25;2.58;;;21.60;99.90;;;;;;5073448;28;20388;-80
2023/09/29 09:55:29;;;;;;;4.20;2.40;;;21.70;99.90;;;;;;5073719;28;20042;-80
2023/09/29 09:57:56;;;;;;;3.65;2.28;;;21.80;99.90;;;;;;5072811;28;20036;-81
2023/09/29 10:00:24;;;;;;;4.60;1.95;;;21.90;99.90;;;;;;5073673;28;20453;-80
2023/09/29 10:02:51;;;;;;;4.30;2.20;;;21.90;99.90;;;;;;5073401;28;20469;-81
2023/09/29 10:05:30;;;;;;;3.55;1.80;;;22.10;99.90;;;;;;5073703;28;20031;-81
2023/09/29 10:08:02;;;;;;;4.15;1.75;;;22.10;99.90;;;;;;5073295;28;20504;-82
2023/09/29 10:10:31;;;;;;;;;;;22.20;99.90;;;;;;5074393;28;20024;-82
2023/09/29 10:12:58;;;;;;;3.88;1.90;;;22.30;99.90;;;;;;5075336;28;20375;-82
2023/09/29 10:15:29;;;;;;;5.63;1.95;;;22.30;99.90;;;;;;5074768;28;20035;-81
2023/09/29 10:17:58;;;;;;;25.35;2.10;;;22.40;99.90;;;;;;5072883;28;20458;-80
2023/09/29 10:20:26;;;;;;;5.78;2.08;;;22.60;99.90;;;;;;5069150;28;20032;-82
2023/09/29 10:23:16;;;;;;;4.85;1.95;;;22.70;99.90;;;;;;5060907;28;20036;-81
2023/09/29 10:25:44;;;;;;;7.05;2.13;;;22.70;99.90;;;;;;5072162;28;20044;-80
2023/09/29 10:28:12;;;;;;;3.63;2.10;;;22.70;99.90;;;;;;5072746;28;20039;-79
2023/09/29 10:30:39;;;;;;;4.20;2.03;;;22.80;99.90;;;;;;5070364;28;20016;-78
2023/09/29 10:33:11;;;;;;;8.18;2.13;;;22.90;99.90;;;;;;5072502;28;20076;-79
2023/09/29 10:35:45;;;;;;;4.75;1.98;;;22.90;99.90;;;;;;5073033;28;20043;-79
2023/09/29 10:38:27;;;;;;;4.38;1.92;;;23.00;99.90;;;;;;5073826;28;20029;-79
2023/09/29 10:40:53;;;;;;;2.25;1.77;;;23.10;99.90;;;;;;5072279;28;20311;-80
2023/09/29 10:43:26;;;;;;;7.38;1.70;;;23.10;99.90;;;;;;5072380;28;20056;-80
2023/09/29 10:45:52;;;;;;;4.63;2.28;;;23.20;99.90;;;;;;5072567;28;20028;-82
2023/09/29 10:48:21;;;;;;;5.65;2.10;;;23.30;99.90;;;;;;5073083;28;20031;-82
2023/09/29 10:50:51;;;;;;;4.68;2.15;;;23.30;99.90;;;;;;5072327;28;20384;-80
2023/09/29 10:53:21;;;;;;;7.93;2.20;;;23.30;99.90;;;;;;5073873;28;20028;-79
2023/09/29 10:55:49;;;;;;;3.55;2.00;;;23.40;99.90;;;;;;5074117;28;20056;-79
2023/09/29 10:58:17;;;;;;;8.45;2.40;;;23.40;99.90;;;;;;5074273;28;20509;-79
2023/09/29 11:00:51;;;;;;;6.60;2.08;;;23.50;99.90;;;;;;5089503;28;20032;-79
2023/09/29 11:03:26;;;;;;;7.07;2.05;;;23.50;99.90;;;;;;5089942;28;20021;-80
2023/09/29 11:06:18;;;;;;;9.10;2.25;;;23.50;99.90;;;;;;5072523;28;20040;-80
2023/09/29 11:08:50;;;;;;;4.82;2.20;;;23.60;99.90;;;;;;5072974;28;20542;-81
2023/09/29 11:11:17;;;;;;;3.88;2.25;;;23.70;99.90;;;;;;5073429;28;20039;-79
2023/09/29 11:13:42;;;;;;;5.38;2.15;;;23.80;99.90;;;;;;5073770;28;20020;-80
2023/09/29 11:16:19;;;;;;;5.13;2.17;;;23.80;99.90;;;;;;5074156;28;20031;-81
2023/09/29 11:18:45;;;;;;;4.93;2.30;;;23.80;99.90;;;;;;5072301;28;20030;-80
2023/09/29 11:21:12;;;;;;;4.82;2.17;;;23.90;99.90;;;;;;5072736;28;20452;-80
2023/09/29 11:23:44;;;;;;;3.10;1.85;;;23.90;99.90;;;;;;5073398;28;20031;-81
2023/09/29 11:26:10;;;;;;;4.35;2.10;;;24.00;99.90;;;;;;5072543;28;20568;-79
2023/09/29 11:28:43;;;;;;;5.07;1.70;;;24.10;99.90;;;;;;5072852;28;20116;-85
2023/09/29 11:31:10;;;;;;;5.05;1.95;;;24.10;99.90;;;;;;5072328;28;20036;-80
2023/09/29 11:33:37;;;;;;;6.85;2.17;;;24.20;99.90;;;;;;5073449;28;20059;-82
2023/09/29 11:36:17;;;;;;;6.00;2.10;;;24.30;99.90;;;;;;5072830;28;20036;-79
2023/09/29 11:38:44;;;;;;;4.15;1.90;;;24.30;99.90;;;;;;5073028;28;20419;-80
2023/09/29 11:41:15;;;;;;;3.30;1.90;;;24.30;99.90;;;;;;5072433;28;20029;-80
2023/09/29 11:43:41;;;;;;;4.28;2.03;;;24.40;99.90;;;;;;5088941;28;20029;-80
2023/09/29 11:46:07;;;;;;;4.60;2.20;;;24.50;99.90;;;;;;5073594;28;20029;-79
2023/09/29 11:48:33;;;;;;;5.22;2.17;;;24.50;99.90;;;;;;5073551;28;20043;-80
2023/09/29 11:50:58;;;;;;;5.72;2.28;;;24.60;99.90;;;;;;5072194;28;20027;-80
2023/09/29 11:53:24;;;;;;;3.50;1.90;;;24.70;99.90;;;;;;5073605;28;20492;-80
2023/09/29 11:55:50;;;;;;;3.75;1.83;;;24.80;99.90;;;;;;5071785;28;20025;-80
2023/09/29 11:58:16;;;;;;;4.55;2.13;;;24.90;99.90;;;;;;5072491;28;20044;-80
2023/09/29 12:00:41;;;;;;;7.97;2.20;;;25.00;99.80;;;;;;5070949;28;20052;-79
2023/09/29 12:03:08;;;;;;;4.78;2.30;;;25.30;99.70;;;;;;5072501;28;20029;-78
2023/09/29 12:05:37;;;;;;;4.15;1.98;;;25.50;99.30;;;;;;5072281;28;20067;-79
2023/09/29 12:08:04;;;;;;;4.30;1.73;;;25.60;98.70;;;;;;5088851;28;20024;-79
2023/09/29 12:10:30;;;;;;;6.22;2.00;;;25.60;98.70;;;;;;5071877;28;20025;-78
2023/09/29 12:12:57;;;;;;;4.75;2.20;;;25.60;98.80;;;;;;5071534;28;20358;-79
2023/09/29 12:15:23;;;;;;;3.72;2.05;;;25.50;98.70;;;;;;5072358;28;20385;-79
2023/09/29 12:17:50;;;;;;;4.30;2.00;;;25.50;98.80;;;;;;5071287;28;20141;-79
2023/09/29 12:20:18;;;;;;;4.47;2.22;;;25.40;98.80;;;;;;5072027;28;20111;-79
2023/09/29 12:22:45;;;;;;;3.50;1.98;;;25.40;99.00;;;;;;5071717;28;20033;-79
2023/09/29 12:25:15;;;;;;;2.92;1.85;;;25.40;99.00;;;;;;5072021;28;20481;-79
2023/09/29 12:27:45;;;;;;;4.45;2.42;;;25.40;99.00;;;;;;5071513;28;20443;-81
2023/09/29 12:30:15;;;;;;;5.30;2.00;;;25.60;98.90;;;;;;5072070;28;20035;-79
2023/09/29 12:32:42;;;;;;;7.38;1.80;;;25.90;98.50;;;;;;5072509;28;20051;-85
2023/09/29 12:35:09;;;;;;;3.35;1.90;;;25.80;98.70;;;;;;5073188;28;20102;-80
2023/09/29 12:37:36;;;;;;;2.83;1.60;;;25.80;98.90;;;;;;5072948;28;20036;-79
2023/09/29 12:40:01;;;;;;;5.05;1.83;;;25.70;99.00;;;;;;5072528;28;20033;-79
2023/09/29 12:42:27;;;;;;;3.30;1.80;;;25.60;99.20;;;;;;5073528;28;20035;-79
2023/09/29 12:44:52;;;;;;;4.60;1.73;;;25.50;99.20;;;;;;5074768;28;20534;-79
2023/09/29 12:47:18;;;;;;;4.80;1.80;;;25.50;99.10;;;;;;5075359;28;20028;-78